createdAt,value
2022-08-01T00:02:25.754Z,14.1
2022-08-01T00:07:25.731Z,12.7
2022-08-01T00:12:25.745Z,12.5
2022-08-01T00:17:25.734Z,12.5
2022-08-01T00:22:25.735Z,11.6
2022-08-01T00:27:25.737Z,11.5
2022-08-01T00:32:25.743Z,12.8
2022-08-01T00:42:25.742Z,13.7
2022-08-01T00:47:25.747Z,16.0
2022-08-01T00:52:25.744Z,16.8
2022-08-01T00:58:01.688Z,15.1
2022-08-01T01:02:25.748Z,14.9
2022-08-01T01:07:25.746Z,12.0
2022-08-01T01:12:25.744Z,10.7
2022-08-01T01:17:50.552Z,11.2
2022-08-01T01:22:25.752Z,12.2
2022-08-01T01:27:25.759Z,12.8
2022-08-01T01:32:31.013Z,12.1
2022-08-01T01:37:25.752Z,11.5
2022-08-01T01:42:25.757Z,10.0
2022-08-01T01:47:25.764Z,12.2
2022-08-01T01:52:25.770Z,11.1
2022-08-01T01:57:25.764Z,10.2
2022-08-01T02:02:25.890Z,11.3
2022-08-01T02:07:25.769Z,9.6
2022-08-01T02:12:25.767Z,11.7
2022-08-01T02:17:25.772Z,12.1
2022-08-01T02:22:25.778Z,10.3
2022-08-01T02:27:25.780Z,11.1
2022-08-01T02:32:25.774Z,10.2
2022-08-01T02:37:25.777Z,10.7
2022-08-01T02:42:25.781Z,9.6
2022-08-01T02:47:25.800Z,11.9
2022-08-01T02:52:25.788Z,10.0
2022-08-01T02:57:27.920Z,11.9
2022-08-01T03:02:25.782Z,8.7
2022-08-01T03:07:25.792Z,10.3
2022-08-01T03:12:25.793Z,10.5
2022-08-01T03:17:25.795Z,9.4
2022-08-01T03:22:25.792Z,9.5
2022-08-01T03:27:25.799Z,11.5
2022-08-01T03:32:25.794Z,14.1
2022-08-01T03:37:25.801Z,12.1
2022-08-01T03:42:25.804Z,14.7
2022-08-01T03:47:25.811Z,12.5
2022-08-01T03:52:25.809Z,11.4
2022-08-01T03:57:36.357Z,11.4
2022-08-01T04:02:25.810Z,13.1
2022-08-01T04:07:25.807Z,12.5
2022-08-01T04:12:25.815Z,14.3
2022-08-01T04:17:25.816Z,14.1
2022-08-01T04:22:25.822Z,14.0
2022-08-01T04:27:50.646Z,15.3
2022-08-01T04:32:25.817Z,13.4
2022-08-01T04:37:25.818Z,15.0
2022-08-01T04:42:30.080Z,14.2
2022-08-01T04:47:25.825Z,14.4
2022-08-01T04:52:25.825Z,16.4
2022-08-01T04:57:25.826Z,14.5
2022-08-01T05:02:25.844Z,13.7
2022-08-01T05:07:25.840Z,13.9
2022-08-01T05:12:25.842Z,13.4
2022-08-01T05:17:25.834Z,13.7
2022-08-01T05:22:25.834Z,14.4
2022-08-01T05:27:25.841Z,14.0
2022-08-01T05:32:25.838Z,13.2
2022-08-01T05:37:25.847Z,12.9
2022-08-01T05:42:25.878Z,14.0
2022-08-01T05:47:25.850Z,12.4
2022-08-01T05:52:25.849Z,11.1
2022-08-01T05:57:25.856Z,12.1
2022-08-01T06:02:25.898Z,12.4
2022-08-01T06:07:25.862Z,14.9
2022-08-01T06:12:25.856Z,14.1
2022-08-01T06:17:25.864Z,12.4
2022-08-01T06:22:25.862Z,13.5
2022-08-01T06:27:25.870Z,14.0
2022-08-01T06:32:27.345Z,15.0
2022-08-01T06:37:25.872Z,13.0
2022-08-01T06:42:25.873Z,12.1
2022-08-01T06:47:25.869Z,11.9
2022-08-01T06:52:25.872Z,10.5
2022-08-01T06:57:25.876Z,9.9
2022-08-01T07:02:25.882Z,9.8
2022-08-01T07:07:25.879Z,11.4
2022-08-01T07:12:25.889Z,10.4
2022-08-01T07:17:25.893Z,8.6
2022-08-01T07:22:25.892Z,9.4
2022-08-01T07:27:26.303Z,7.9
2022-08-01T07:32:25.895Z,7.1
2022-08-01T07:37:48.562Z,5.6
2022-08-01T07:42:25.903Z,4.1
2022-08-01T07:47:25.929Z,3.2
2022-08-01T07:52:25.912Z,4.4
2022-08-01T07:57:25.907Z,4.4
2022-08-01T08:02:25.969Z,4.1
2022-08-01T08:07:25.910Z,5.4
2022-08-01T08:12:28.958Z,4.5
2022-08-01T08:17:25.911Z,5.2
2022-08-01T08:22:25.913Z,4.1
2022-08-01T08:27:25.917Z,4.8
2022-08-01T08:32:25.929Z,3.9
2022-08-01T08:37:25.921Z,3.1
2022-08-01T08:42:25.927Z,3.5
2022-08-01T08:47:25.931Z,2.3
2022-08-01T08:52:25.940Z,2.0
2022-08-01T08:57:25.954Z,1.7
2022-08-01T09:02:25.942Z,2.0
2022-08-01T09:07:25.959Z,1.4
2022-08-01T09:12:25.950Z,1.7
2022-08-01T09:17:25.960Z,1.5
2022-08-01T09:22:25.953Z,0.9
2022-08-01T09:27:25.955Z,0.9
2022-08-01T09:32:26.201Z,2.0
2022-08-01T09:37:25.954Z,1.5
2022-08-01T09:42:29.269Z,1.2
2022-08-01T09:47:25.976Z,1.0
2022-08-01T09:52:29.022Z,0.7
2022-08-01T09:57:25.977Z,1.4
2022-08-01T10:02:25.976Z,0.9
2022-08-01T10:07:27.864Z,1.3
2022-08-01T10:12:25.979Z,2.5
2022-08-01T10:17:25.986Z,0.8
2022-08-01T10:22:26.020Z,1.0
2022-08-01T10:27:37.949Z,1.8
2022-08-01T10:32:25.995Z,1.1
2022-08-01T10:37:26.933Z,1.4
2022-08-01T10:42:25.989Z,1.6
2022-08-01T10:47:26.946Z,1.4
2022-08-01T10:52:25.999Z,1.6
2022-08-01T10:57:27.558Z,1.0
2022-08-01T11:02:25.998Z,1.9
2022-08-01T11:07:26.118Z,1.1
2022-08-01T11:12:25.991Z,1.3
2022-08-01T11:17:26.010Z,0.7
2022-08-01T11:22:26.001Z,1.0
2022-08-01T11:27:25.998Z,2.7
2022-08-01T11:32:26.042Z,0.9
2022-08-01T11:37:26.190Z,1.1
2022-08-01T11:42:26.822Z,2.0
2022-08-01T11:47:26.011Z,1.4
2022-08-01T11:52:26.013Z,2.2
2022-08-01T11:57:34.168Z,1.4
2022-08-01T12:02:30.112Z,2.4
2022-08-01T12:07:26.020Z,0.8
2022-08-01T12:12:26.021Z,1.0
2022-08-01T12:17:26.021Z,0.7
2022-08-01T12:22:26.020Z,1.4
2022-08-01T12:27:26.034Z,2.3
2022-08-01T12:32:27.717Z,1.2
2022-08-01T12:37:26.039Z,0.9
2022-08-01T12:42:26.040Z,2.1
2022-08-01T12:47:26.045Z,2.2
2022-08-01T12:52:26.730Z,2.7
2022-08-01T12:57:26.048Z,1.6
2022-08-01T13:02:26.048Z,3.8
2022-08-01T13:07:26.061Z,2.2
2022-08-01T13:12:26.053Z,2.8
2022-08-01T13:17:26.055Z,2.2
2022-08-01T13:22:26.055Z,2.8
2022-08-01T13:27:26.059Z,2.7
2022-08-01T13:32:28.346Z,3.3
2022-08-01T13:37:26.060Z,4.2
2022-08-01T13:42:26.074Z,2.4
2022-08-01T13:47:31.738Z,4.0
2022-08-01T13:52:26.072Z,4.4
2022-08-01T13:57:26.073Z,3.2
2022-08-01T14:02:26.071Z,4.1
2022-08-01T14:07:26.091Z,2.7
2022-08-01T14:12:26.078Z,3.6
2022-08-01T14:17:26.073Z,4.4
2022-08-01T14:22:26.081Z,2.4
2022-08-01T14:27:26.198Z,5.2
2022-08-01T14:32:28.888Z,4.8
2022-08-01T14:37:29.201Z,3.6
2022-08-01T14:42:26.086Z,3.3
2022-08-01T14:47:26.085Z,6.0
2022-08-01T14:52:26.091Z,2.9
2022-08-01T14:57:26.108Z,5.6
2022-08-01T15:02:26.105Z,7.2
2022-08-01T15:07:26.112Z,11.0
2022-08-01T15:12:26.102Z,5.0
2022-08-01T15:17:26.119Z,5.7
2022-08-01T15:22:26.117Z,4.2
2022-08-01T15:27:26.125Z,4.6
2022-08-01T15:32:26.112Z,5.1
2022-08-01T15:37:26.115Z,4.0
2022-08-01T15:42:26.916Z,4.8
2022-08-01T15:47:26.116Z,3.5
2022-08-01T15:52:31.671Z,3.6
2022-08-01T15:57:26.131Z,3.3
2022-08-01T16:02:26.118Z,2.5
2022-08-01T16:07:26.120Z,2.4
2022-08-01T16:12:26.122Z,5.2
2022-08-01T16:17:26.130Z,3.0
2022-08-01T16:22:26.129Z,2.5
2022-08-01T16:27:27.350Z,3.4
2022-08-01T16:32:32.367Z,4.0
2022-08-01T16:37:26.147Z,4.4
2022-08-01T16:42:27.591Z,2.6
2022-08-01T16:47:26.151Z,2.7
2022-08-01T16:52:28.708Z,3.2
2022-08-01T16:57:26.153Z,2.3
2022-08-01T17:02:26.187Z,1.5
2022-08-01T17:07:26.158Z,2.7
2022-08-01T17:12:26.160Z,1.7
2022-08-01T17:17:26.155Z,1.9
2022-08-01T17:22:26.171Z,1.5
2022-08-01T17:27:26.182Z,1.7
2022-08-01T17:32:26.166Z,1.7
2022-08-01T17:37:26.166Z,4.4
2022-08-01T17:42:26.182Z,1.8
2022-08-01T17:47:49.272Z,2.3
2022-08-01T17:52:29.740Z,1.9
2022-08-01T17:57:26.173Z,3.2
2022-08-01T18:02:26.177Z,1.9
2022-08-01T18:08:01.614Z,3.2
2022-08-01T18:12:26.175Z,1.9
2022-08-01T18:17:26.174Z,1.4
2022-08-01T18:22:33.894Z,2.5
2022-08-01T18:27:26.180Z,1.8
2022-08-01T18:32:26.174Z,1.2
2022-08-01T18:37:26.789Z,2.4
2022-08-01T18:42:26.174Z,2.1
2022-08-01T18:47:26.178Z,4.8
2022-08-01T18:52:28.535Z,3.5
2022-08-01T18:57:26.175Z,2.5
2022-08-01T19:02:26.176Z,3.9
2022-08-01T19:07:53.579Z,1.2
2022-08-01T19:12:26.183Z,1.6
2022-08-01T19:17:26.225Z,3.0
2022-08-01T19:22:26.181Z,2.4
2022-08-01T19:27:26.185Z,1.9
2022-08-01T19:32:26.179Z,2.4
2022-08-01T19:37:27.416Z,3.5
2022-08-01T19:42:26.187Z,2.8
2022-08-01T19:47:26.181Z,2.7
2022-08-01T19:52:26.202Z,2.5
2022-08-01T19:57:26.177Z,1.5
2022-08-01T20:02:26.193Z,1.7
2022-08-01T20:07:26.190Z,2.4
2022-08-01T20:12:26.185Z,2.5
2022-08-01T20:17:26.183Z,2.9
2022-08-01T20:22:26.185Z,1.9
2022-08-01T20:27:26.190Z,1.9
2022-08-01T20:32:26.188Z,2.6
2022-08-01T20:38:04.144Z,3.7
2022-08-01T20:42:26.189Z,2.8
2022-08-01T20:47:26.191Z,2.6
2022-08-01T20:52:26.201Z,2.0
2022-08-01T20:57:26.197Z,3.3
2022-08-01T21:02:26.198Z,2.6
2022-08-01T21:07:26.190Z,2.8
2022-08-01T21:12:26.208Z,3.0
2022-08-01T21:17:26.188Z,2.7
2022-08-01T21:22:26.971Z,3.4
2022-08-01T21:27:33.683Z,3.5
2022-08-01T21:32:26.198Z,2.4
2022-08-01T21:37:26.199Z,3.1
2022-08-01T21:42:26.210Z,3.3
2022-08-01T21:47:26.207Z,3.1
2022-08-01T21:52:26.213Z,2.3
2022-08-01T21:57:26.210Z,2.0
2022-08-01T22:02:26.238Z,3.1
2022-08-01T22:07:26.211Z,3.9
2022-08-01T22:12:26.213Z,2.2
2022-08-01T22:17:26.208Z,3.5
2022-08-01T22:22:42.445Z,2.8
2022-08-01T22:28:07.748Z,3.1
2022-08-01T22:32:26.219Z,2.9
2022-08-01T22:37:57.496Z,2.8
2022-08-01T22:42:26.232Z,1.9
2022-08-01T22:47:26.218Z,2.2
2022-08-01T22:52:26.224Z,4.8
2022-08-01T22:57:26.232Z,2.7
2022-08-01T23:02:26.226Z,2.4
2022-08-01T23:07:26.261Z,3.1
2022-08-01T23:12:26.231Z,3.6
2022-08-01T23:17:28.494Z,3.4
2022-08-01T23:22:26.225Z,2.0
2022-08-01T23:27:51.403Z,2.2
2022-08-01T23:32:26.232Z,2.7
2022-08-01T23:37:26.235Z,3.4
2022-08-01T23:42:26.236Z,4.3
2022-08-01T23:47:26.239Z,2.3
2022-08-01T23:52:32.222Z,3.1
2022-08-01T23:57:26.255Z,2.9
